createdAt,value
2023-07-04T00:00:51.486Z,1.63
2023-07-04T00:03:37.452Z,1.77
2023-07-04T00:06:31.266Z,1.57
2023-07-04T00:09:23.243Z,1.98
2023-07-04T00:12:09.543Z,1.70
2023-07-04T00:15:01.255Z,1.83
2023-07-04T00:17:46.080Z,1.75
2023-07-04T00:20:41.253Z,1.87
2023-07-04T00:23:35.311Z,1.98
2023-07-04T00:26:22.106Z,1.40
2023-07-04T00:29:13.249Z,2.20
2023-07-04T00:32:06.270Z,2.22
2023-07-04T00:34:57.271Z,1.90
2023-07-04T00:37:51.298Z,1.50
2023-07-04T00:40:36.042Z,1.90
2023-07-04T00:43:27.279Z,1.90
2023-07-04T00:46:22.303Z,1.80
2023-07-04T00:49:25.282Z,1.93
2023-07-04T00:52:34.018Z,1.75
2023-07-04T00:55:26.281Z,1.90
2023-07-04T00:58:11.489Z,1.83
2023-07-04T01:01:03.271Z,1.95
2023-07-04T01:03:55.306Z,2.07
2023-07-04T01:06:55.260Z,1.67
2023-07-04T01:09:51.282Z,1.65
2023-07-04T01:12:37.638Z,1.70
2023-07-04T01:15:31.309Z,1.88
2023-07-04T01:18:16.379Z,1.53
2023-07-04T01:21:09.279Z,1.50
2023-07-04T01:24:06.366Z,1.85
2023-07-04T01:26:58.277Z,1.90
2023-07-04T01:29:44.550Z,1.80
2023-07-04T01:32:36.330Z,2.23
2023-07-04T01:35:23.663Z,1.60
2023-07-04T01:38:15.279Z,1.60
2023-07-04T01:41:00.018Z,1.38
2023-07-04T01:44:04.289Z,1.40
2023-07-04T01:46:49.172Z,1.70
2023-07-04T01:49:40.286Z,1.42
2023-07-04T01:52:26.808Z,2.00
2023-07-04T01:55:20.296Z,1.50
2023-07-04T01:58:05.069Z,2.00
2023-07-04T02:00:56.352Z,1.50
2023-07-04T02:03:41.540Z,1.20
2023-07-04T02:06:33.323Z,1.75
2023-07-04T02:09:18.312Z,1.70
2023-07-04T02:12:10.307Z,2.22
2023-07-04T02:15:02.376Z,1.60
2023-07-04T02:17:55.305Z,1.73
2023-07-04T02:20:40.212Z,1.50
2023-07-04T02:23:31.312Z,1.60
2023-07-04T02:26:22.308Z,1.85
2023-07-04T02:29:07.444Z,1.57
2023-07-04T02:31:59.301Z,1.42
2023-07-04T02:34:44.295Z,1.88
2023-07-04T02:37:35.309Z,1.45
2023-07-04T02:40:20.175Z,1.73
2023-07-04T02:43:11.305Z,1.70
2023-07-04T02:46:04.963Z,1.63
2023-07-04T02:48:56.321Z,1.30
2023-07-04T02:51:41.496Z,1.35
2023-07-04T02:54:33.321Z,1.80
2023-07-04T02:57:25.334Z,1.30
2023-07-04T03:00:17.361Z,1.60
2023-07-04T03:03:02.554Z,1.50
2023-07-04T03:05:54.332Z,1.73
2023-07-04T03:08:39.435Z,1.70
2023-07-04T03:11:31.344Z,1.90
2023-07-04T03:14:16.100Z,1.73
2023-07-04T03:17:07.384Z,1.58
2023-07-04T03:19:52.998Z,1.40
2023-07-04T03:22:46.336Z,1.63
2023-07-04T03:25:31.393Z,1.70
2023-07-04T03:28:22.331Z,1.48
2023-07-04T03:31:07.286Z,1.95
2023-07-04T03:33:58.335Z,1.63
2023-07-04T03:36:43.460Z,1.67
2023-07-04T03:39:35.343Z,1.93
2023-07-04T03:42:20.209Z,1.38
2023-07-04T03:45:20.338Z,1.40
2023-07-04T03:48:11.572Z,1.90
2023-07-04T03:51:03.313Z,1.80
2023-07-04T03:53:49.819Z,1.87
2023-07-04T03:56:41.324Z,1.30
2023-07-04T03:59:32.325Z,1.60
2023-07-04T04:02:23.384Z,1.40
2023-07-04T04:05:08.900Z,1.80
2023-07-04T04:08:00.372Z,1.60
2023-07-04T04:10:45.284Z,1.63
2023-07-04T04:13:37.438Z,1.60
2023-07-04T04:16:23.257Z,1.55
2023-07-04T04:19:22.342Z,1.55
2023-07-04T04:22:20.351Z,1.70
2023-07-04T04:25:16.354Z,1.98
2023-07-04T04:28:08.327Z,1.42
2023-07-04T04:30:53.621Z,1.90
2023-07-04T04:33:45.344Z,1.80
2023-07-04T04:36:31.440Z,1.80
2023-07-04T04:39:23.344Z,1.40
2023-07-04T04:42:15.470Z,1.50
2023-07-04T04:45:15.537Z,1.40
2023-07-04T04:48:07.343Z,1.40
2023-07-04T04:50:59.343Z,1.80
2023-07-04T04:53:49.474Z,1.52
2023-07-04T04:56:41.380Z,1.25
2023-07-04T04:59:26.498Z,1.48
2023-07-04T05:02:18.327Z,2.30
2023-07-04T05:05:03.598Z,1.30
2023-07-04T05:07:56.387Z,1.50
2023-07-04T05:10:54.985Z,1.48
2023-07-04T05:13:48.400Z,1.23
2023-07-04T05:16:34.010Z,1.60
2023-07-04T05:19:25.430Z,1.37
2023-07-04T05:22:10.603Z,1.73
2023-07-04T05:25:04.378Z,1.70
2023-07-04T05:27:58.346Z,1.13
2023-07-04T05:30:49.502Z,1.55
2023-07-04T05:33:35.579Z,1.47
2023-07-04T05:36:33.405Z,1.73
2023-07-04T05:39:18.096Z,1.42
2023-07-04T05:42:09.366Z,1.33
2023-07-04T05:45:01.398Z,1.40
2023-07-04T05:47:52.413Z,1.40
2023-07-04T05:50:37.178Z,1.50
2023-07-04T05:53:31.359Z,1.48
2023-07-04T05:56:25.983Z,1.50
2023-07-04T05:59:17.359Z,2.13
2023-07-04T06:02:02.803Z,1.87
2023-07-04T06:04:54.486Z,1.40
2023-07-04T06:07:39.764Z,1.60
2023-07-04T06:10:31.377Z,1.60
2023-07-04T06:13:16.240Z,1.65
2023-07-04T06:16:10.448Z,1.77
2023-07-04T06:18:55.451Z,1.73
2023-07-04T06:21:47.397Z,1.48
2023-07-04T06:24:39.368Z,1.40
2023-07-04T06:27:32.408Z,1.70
2023-07-04T06:30:17.179Z,1.90
2023-07-04T06:33:13.373Z,1.77
2023-07-04T06:35:58.645Z,1.70
2023-07-04T06:38:50.384Z,1.20
2023-07-04T06:41:35.559Z,2.20
2023-07-04T06:44:27.388Z,1.43
2023-07-04T06:47:12.581Z,2.03
2023-07-04T06:50:04.389Z,1.52
2023-07-04T06:52:50.195Z,1.85
2023-07-04T06:55:41.398Z,1.77
2023-07-04T06:58:32.400Z,2.60
2023-07-04T07:01:25.423Z,1.50
2023-07-04T07:04:19.394Z,1.50
2023-07-04T07:07:12.406Z,2.00
2023-07-04T07:09:57.315Z,1.98
2023-07-04T07:12:48.383Z,1.80
2023-07-04T07:15:33.153Z,1.80
2023-07-04T07:18:25.411Z,1.70
2023-07-04T07:21:12.630Z,2.00
2023-07-04T07:24:08.395Z,1.90
2023-07-04T07:26:54.896Z,1.70
2023-07-04T07:29:49.315Z,1.90
2023-07-04T07:32:34.062Z,1.77
2023-07-04T07:35:25.393Z,2.05
2023-07-04T07:38:10.310Z,1.85
2023-07-04T07:41:02.402Z,1.67
2023-07-04T07:43:54.384Z,1.80
2023-07-04T07:46:46.000Z,1.92
2023-07-04T07:49:37.398Z,1.80
2023-07-04T07:52:23.216Z,2.20
2023-07-04T07:55:15.460Z,1.80
2023-07-04T07:58:07.393Z,2.00
2023-07-04T08:00:52.470Z,2.30
2023-07-04T08:03:44.567Z,2.17
2023-07-04T08:06:31.331Z,2.42
2023-07-04T08:09:24.428Z,2.50
2023-07-04T08:12:16.439Z,2.30
2023-07-04T08:15:01.761Z,1.80
2023-07-04T08:17:53.423Z,1.65
2023-07-04T08:20:44.425Z,1.90
2023-07-04T08:23:36.435Z,1.80
2023-07-04T08:26:24.279Z,1.83
2023-07-04T08:29:16.426Z,1.98
2023-07-04T08:32:01.519Z,1.60
2023-07-04T08:34:54.420Z,2.45
2023-07-04T08:37:39.241Z,2.10
2023-07-04T08:40:30.430Z,2.03
2023-07-04T08:43:20.280Z,2.38
2023-07-04T08:46:20.464Z,2.20
2023-07-04T08:49:08.725Z,2.50
2023-07-04T08:52:15.439Z,2.10
2023-07-04T08:55:00.564Z,2.08
2023-07-04T08:58:06.448Z,2.47
2023-07-04T09:00:53.165Z,2.25
2023-07-04T09:04:04.461Z,2.13
2023-07-04T09:07:17.437Z,2.30
2023-07-04T09:10:30.453Z,2.70
2023-07-04T09:13:33.527Z,2.30
2023-07-04T09:16:37.503Z,2.55
2023-07-04T09:19:29.462Z,2.90
2023-07-04T09:22:15.065Z,2.53
2023-07-04T09:25:06.469Z,3.27
2023-07-04T09:27:51.337Z,2.83
2023-07-04T09:30:46.790Z,2.50
2023-07-04T09:33:43.459Z,2.42
2023-07-04T09:36:33.497Z,3.00
2023-07-04T09:39:25.464Z,3.17
2023-07-04T09:42:20.957Z,2.37
2023-07-04T09:45:30.521Z,2.40
2023-07-04T09:48:31.451Z,2.85
2023-07-04T09:51:38.470Z,2.67
2023-07-04T09:54:29.462Z,3.20
2023-07-04T09:57:28.475Z,3.33
2023-07-04T10:00:27.469Z,2.60
2023-07-04T10:03:13.933Z,3.95
2023-07-04T10:06:05.484Z,2.70
2023-07-04T10:08:56.159Z,3.15
2023-07-04T10:11:47.484Z,2.57
2023-07-04T10:14:42.473Z,2.92
2023-07-04T10:17:34.038Z,3.58
2023-07-04T10:20:25.475Z,2.97
2023-07-04T10:23:16.487Z,2.90
2023-07-04T10:26:08.481Z,3.27
2023-07-04T10:28:59.498Z,2.95
2023-07-04T10:31:45.746Z,3.35
2023-07-04T10:34:39.470Z,3.25
2023-07-04T10:37:35.526Z,3.20
2023-07-04T10:40:28.497Z,3.00
2023-07-04T10:43:28.495Z,3.00
2023-07-04T10:46:34.527Z,3.15
2023-07-04T10:49:22.670Z,3.08
2023-07-04T10:52:22.496Z,3.25
2023-07-04T10:55:26.537Z,3.30
2023-07-04T11:11:54.498Z,3.07
2023-07-04T11:14:47.539Z,3.50
2023-07-04T11:17:43.538Z,3.40
2023-07-04T11:20:58.535Z,3.28
2023-07-04T11:24:01.508Z,3.60
2023-07-04T11:26:50.319Z,3.80
2023-07-04T11:29:55.527Z,3.10
2023-07-04T11:32:40.590Z,3.15
2023-07-04T11:35:39.532Z,3.30
2023-07-04T11:38:24.621Z,3.40
2023-07-04T11:41:16.535Z,3.27
2023-07-04T11:44:17.550Z,2.85
2023-07-04T11:47:14.583Z,3.30
2023-07-04T11:50:08.791Z,3.30
2023-07-04T11:53:04.595Z,3.85
2023-07-04T11:56:33.524Z,3.87
2023-07-04T11:59:24.510Z,3.95
2023-07-04T12:02:29.911Z,3.38
2023-07-04T12:05:39.513Z,4.28
2023-07-04T12:08:55.537Z,4.07
2023-07-04T12:12:03.539Z,3.37
2023-07-04T12:15:09.581Z,3.90
2023-07-04T12:18:05.576Z,3.65
2023-07-04T12:20:51.188Z,3.75
2023-07-04T12:23:44.540Z,3.90
2023-07-04T12:26:31.546Z,4.30
2023-07-04T12:29:24.124Z,3.78
2023-07-04T12:32:29.728Z,3.80
2023-07-04T12:35:27.542Z,3.70
2023-07-04T12:38:12.687Z,4.32
2023-07-04T12:41:05.550Z,4.17
2023-07-04T12:49:43.746Z,3.83
2023-07-04T12:52:41.569Z,3.55
2023-07-04T12:55:32.661Z,3.90
2023-07-04T12:58:25.718Z,4.22
2023-07-04T13:01:12.730Z,4.25
2023-07-04T13:04:23.553Z,3.90
2023-07-04T13:07:08.444Z,4.50
2023-07-04T13:10:06.545Z,4.00
2023-07-04T13:12:58.625Z,3.85
2023-07-04T13:15:50.650Z,3.85
2023-07-04T13:18:42.378Z,4.40
2023-07-04T13:21:46.569Z,3.90
2023-07-04T13:27:32.581Z,4.30
2023-07-04T13:30:32.500Z,3.88
2023-07-04T13:33:41.612Z,4.30
2023-07-04T13:36:45.587Z,3.78
2023-07-04T13:42:25.564Z,4.00
2023-07-04T13:45:13.732Z,4.20
2023-07-04T13:48:05.573Z,4.53
2023-07-04T13:50:50.643Z,4.15
2023-07-04T13:53:41.588Z,4.07
2023-07-04T13:56:27.110Z,4.32
2023-07-04T13:59:18.622Z,3.95
2023-07-04T14:05:40.877Z,4.15
2023-07-04T14:08:10.589Z,4.00
2023-07-04T14:11:10.598Z,3.75
2023-07-04T14:16:20.827Z,3.78
2023-07-04T14:17:30.401Z,3.80
2023-07-04T14:20:24.872Z,4.32
2023-07-04T14:23:10.264Z,3.83
2023-07-04T14:26:01.598Z,3.97
2023-07-04T14:28:46.468Z,4.50
2023-07-04T14:31:38.663Z,4.07
2023-07-04T14:34:30.590Z,4.10
2023-07-04T14:37:21.618Z,4.03
2023-07-04T14:40:22.100Z,4.18
2023-07-04T14:43:18.609Z,4.13
2023-07-04T14:46:07.392Z,3.72
2023-07-04T14:48:59.623Z,4.00
2023-07-04T14:51:50.605Z,4.30
2023-07-04T14:54:42.621Z,3.97
2023-07-04T14:57:34.606Z,4.18
2023-07-04T15:00:29.684Z,3.63
2023-07-04T15:03:21.741Z,3.97
2023-07-04T15:06:08.233Z,4.17
2023-07-04T15:08:59.627Z,3.88
2023-07-04T15:11:50.611Z,3.92
2023-07-04T15:14:41.660Z,4.18
2023-07-04T15:17:32.660Z,3.90
2023-07-04T15:20:17.612Z,4.10
2023-07-04T15:23:09.653Z,4.13
2023-07-04T15:26:03.853Z,3.70
2023-07-04T15:29:06.623Z,4.00
2023-07-04T15:31:52.683Z,4.00
2023-07-04T15:34:46.679Z,3.67
2023-07-04T15:37:31.652Z,4.07
2023-07-04T15:40:23.623Z,3.80
2023-07-04T15:43:08.708Z,3.50
2023-07-04T15:46:02.674Z,3.40
2023-07-04T15:48:47.785Z,3.70
2023-07-04T15:51:39.682Z,3.38
2023-07-04T15:54:26.167Z,3.28
2023-07-04T15:57:17.624Z,3.40
2023-07-04T16:00:02.544Z,3.78
2023-07-04T16:02:53.716Z,2.93
2023-07-04T16:05:50.849Z,3.45
2023-07-04T16:08:38.475Z,3.60
2023-07-04T16:11:30.635Z,3.33
2023-07-04T16:14:21.839Z,3.88
2023-07-04T16:17:13.625Z,3.73
2023-07-04T16:20:04.655Z,3.95
2023-07-04T16:22:56.646Z,3.30
2023-07-04T16:25:42.730Z,3.25
2023-07-04T16:28:34.651Z,3.50
2023-07-04T16:31:25.682Z,3.43
2023-07-04T16:34:16.661Z,4.53
2023-07-04T16:37:01.564Z,3.38
2023-07-04T16:39:52.662Z,3.50
2023-07-04T16:42:37.669Z,4.20
2023-07-04T16:45:28.762Z,3.40
2023-07-04T16:48:13.987Z,3.33
2023-07-04T16:51:06.660Z,3.75
2023-07-04T16:53:51.465Z,3.70
2023-07-04T16:56:42.655Z,3.35
2023-07-04T16:59:33.667Z,3.43
2023-07-04T17:02:25.721Z,3.10
2023-07-04T17:05:10.672Z,3.83
2023-07-04T17:08:01.662Z,3.50
2023-07-04T17:10:50.473Z,3.05
2023-07-04T17:13:42.709Z,3.57
2023-07-04T17:16:34.707Z,4.03
2023-07-04T17:19:25.683Z,8.43
2023-07-04T17:22:16.665Z,3.72
2023-07-04T17:25:16.542Z,3.30
2023-07-04T17:28:01.686Z,2.97
2023-07-04T17:30:53.685Z,3.20
2023-07-04T17:33:45.676Z,3.88
2023-07-04T17:36:32.448Z,3.55
2023-07-04T17:39:23.686Z,3.30
2023-07-04T17:42:14.683Z,3.53
2023-07-04T17:45:06.705Z,3.60
2023-07-04T17:47:52.482Z,2.67
2023-07-04T17:50:43.676Z,3.38
2023-07-04T17:53:28.582Z,3.00
2023-07-04T17:56:24.679Z,3.07
2023-07-04T17:59:11.383Z,3.33
2023-07-04T18:02:02.682Z,4.00
2023-07-04T18:04:47.755Z,3.40
2023-07-04T18:07:39.693Z,3.25
2023-07-04T18:10:24.517Z,3.50
2023-07-04T18:13:22.712Z,3.20
2023-07-04T18:16:21.697Z,3.00
2023-07-04T18:19:13.698Z,3.42
2023-07-04T18:21:58.648Z,3.72
2023-07-04T18:24:52.703Z,3.13
2023-07-04T18:27:38.008Z,3.38
2023-07-04T18:30:29.710Z,3.60
2023-07-04T18:33:15.438Z,3.08
2023-07-04T18:36:06.685Z,3.40
2023-07-04T18:38:51.967Z,3.50
2023-07-04T18:41:45.690Z,3.45
2023-07-04T18:44:36.704Z,4.18
2023-07-04T18:47:27.736Z,3.22
2023-07-04T18:50:18.711Z,3.45
2023-07-04T18:53:03.965Z,3.23
2023-07-04T18:55:55.701Z,3.13
2023-07-04T18:58:42.868Z,3.42
2023-07-04T19:01:36.761Z,3.50
2023-07-04T19:04:21.739Z,3.30
2023-07-04T19:07:12.703Z,3.50
2023-07-04T19:09:58.437Z,3.50
2023-07-04T19:12:49.709Z,3.60
2023-07-04T19:15:41.769Z,3.65
2023-07-04T19:18:33.793Z,3.40
2023-07-04T19:21:19.429Z,3.30
2023-07-04T19:24:11.733Z,3.55
2023-07-04T19:26:57.161Z,3.80
2023-07-04T19:29:49.747Z,4.18
2023-07-04T19:32:40.735Z,3.70
2023-07-04T19:35:25.607Z,4.20
2023-07-04T19:38:17.719Z,5.03
2023-07-04T19:41:11.729Z,4.20
2023-07-04T19:43:56.419Z,3.75
2023-07-04T19:46:48.020Z,4.22
2023-07-04T19:49:33.222Z,4.10
2023-07-04T19:52:24.725Z,4.15
2023-07-04T19:55:09.511Z,4.10
2023-07-04T19:58:01.733Z,4.20
2023-07-04T20:00:47.363Z,4.97
2023-07-04T20:03:40.860Z,5.00
2023-07-04T20:06:26.416Z,4.50
2023-07-04T20:09:17.758Z,4.70
2023-07-04T20:12:08.734Z,4.38
2023-07-04T20:14:59.948Z,4.22
2023-07-04T20:17:51.780Z,4.30
2023-07-04T20:20:37.660Z,4.15
2023-07-04T20:23:28.746Z,4.78
2023-07-04T20:26:21.913Z,4.47
2023-07-04T20:29:07.080Z,5.40
2023-07-04T20:31:58.823Z,4.60
2023-07-04T20:34:44.120Z,4.63
2023-07-04T20:37:35.761Z,4.53
2023-07-04T20:40:20.553Z,4.25
2023-07-04T20:43:16.753Z,4.22
2023-07-04T20:46:01.777Z,4.03
2023-07-04T20:48:53.755Z,5.00
2023-07-04T20:51:38.564Z,4.75
2023-07-04T20:54:29.773Z,4.57
2023-07-04T20:57:14.844Z,5.40
2023-07-04T21:00:07.758Z,4.43
2023-07-04T21:02:52.490Z,4.65
2023-07-04T21:05:44.748Z,4.20
2023-07-04T21:08:29.859Z,4.38
2023-07-04T21:11:21.753Z,4.57
2023-07-04T21:14:20.766Z,3.90
2023-07-04T21:17:18.909Z,5.10
2023-07-04T21:20:14.768Z,3.75
2023-07-04T21:23:06.763Z,3.33
2023-07-04T21:26:03.774Z,3.40
2023-07-04T21:28:48.574Z,2.70
2023-07-04T21:31:39.776Z,2.60
2023-07-04T21:34:24.876Z,2.10
2023-07-04T21:37:16.773Z,2.45
2023-07-04T21:40:02.163Z,2.17
2023-07-04T21:42:53.762Z,2.23
2023-07-04T21:45:40.649Z,2.03
2023-07-04T21:48:36.793Z,1.90
2023-07-04T21:51:21.552Z,1.95
2023-07-04T21:54:12.780Z,2.17
2023-07-04T21:57:03.766Z,2.00
2023-07-04T21:59:49.178Z,1.60
2023-07-04T22:02:40.927Z,1.80
2023-07-04T22:05:32.784Z,1.88
2023-07-04T22:08:19.043Z,1.90
2023-07-04T22:11:10.788Z,1.87
2023-07-04T22:14:01.963Z,1.95
2023-07-04T22:16:53.802Z,1.88
2023-07-04T22:19:45.794Z,1.80
2023-07-04T22:22:37.795Z,2.55
2023-07-04T22:25:29.825Z,2.20
2023-07-04T22:28:20.790Z,2.38
2023-07-04T22:31:08.459Z,2.40
2023-07-04T22:34:12.788Z,2.50
2023-07-04T22:37:03.801Z,2.47
2023-07-04T22:39:48.616Z,2.73
2023-07-04T22:42:39.792Z,2.30
2023-07-04T22:45:24.496Z,2.50
2023-07-04T22:48:15.794Z,2.33
2023-07-04T22:51:02.545Z,2.50
2023-07-04T22:53:56.822Z,2.43
2023-07-04T22:56:47.798Z,2.60
2023-07-04T22:59:32.664Z,2.72
2023-07-04T23:02:23.855Z,2.53
2023-07-04T23:05:09.086Z,2.53
2023-07-04T23:08:00.811Z,2.33
2023-07-04T23:10:45.585Z,2.58
2023-07-04T23:13:36.872Z,2.30
2023-07-04T23:16:29.026Z,2.28
2023-07-04T23:19:20.810Z,2.22
2023-07-04T23:22:05.656Z,2.47
2023-07-04T23:24:59.845Z,2.00
2023-07-04T23:27:53.814Z,2.50
2023-07-04T23:30:44.821Z,2.15
2023-07-04T23:33:29.616Z,2.45
2023-07-04T23:36:23.821Z,2.20
2023-07-04T23:39:14.816Z,2.47
2023-07-04T23:41:59.863Z,2.05
2023-07-04T23:44:51.811Z,2.25
2023-07-04T23:47:36.676Z,2.10
2023-07-04T23:50:29.821Z,2.20
2023-07-04T23:53:21.812Z,2.40
2023-07-04T23:56:07.462Z,2.28
2023-07-04T23:58:58.818Z,2.00
